.
WxDataArchive / Data Records for 2015-08-29
2015-08-28 August 2015 2015-08-30

Data Records for Saturday, 29 August 2015

Time	Temp	Chill	HIndex	Humid	Dewpt	 Wind 	HiWind	WindDir	Rain 	Barom
-----	----	-----	------	-----	-----	------	------	-------	-----	-----
00:00	65.3	65.3	65.3	84	60.3	0	0	---	0.00	30.084 
00:05	65.3	65.3	65.3	84	60.3	0	0	---	0.00	30.084 
00:10	65.2	65.2	65.2	84	60.2	0	0	---	0.00	30.084 
00:15	65.2	65.2	65.2	84	60.2	0	0	---	0.00	30.080 
00:20	65.2	65.2	65.2	84	60.2	0	0	---	0.00	30.080 
00:25	65.2	65.2	65.2	84	60.2	0	0	---	0.00	30.080 
00:30	65.0	65.0	65.0	84	60.0	0	0	---	0.00	30.081 
00:35	65.0	65.0	65.0	84	60.0	0	0	---	0.00	30.081 
00:40	65.0	65.0	65.0	83	59.7	0	0	---	0.00	30.081 
00:45	65.0	65.0	65.0	83	59.7	0	0	---	0.00	30.082 
00:50	65.0	65.0	65.0	83	59.7	0	0	---	0.00	30.082 
00:55	65.0	65.0	65.0	83	59.7	0	0	---	0.00	30.082 
01:00	64.8	64.8	64.8	83	59.5	0	0	---	0.00	30.084 
01:05	64.8	64.8	64.8	83	59.5	0	0	---	0.00	30.084 
01:10	64.7	64.7	64.7	83	59.4	0	1	90	0.00	30.084 
01:15	64.7	64.7	64.7	83	59.4	0	0	---	0.00	30.082 
01:20	64.5	64.5	64.5	84	59.6	0	0	---	0.00	30.082 
01:25	64.3	64.3	64.3	84	59.4	0	0	---	0.00	30.082 
01:30	64.2	64.2	64.2	84	59.3	0	0	---	0.00	30.081 
01:35	64.0	64.0	64.0	84	59.1	0	0	---	0.00	30.081 
01:40	63.9	63.9	63.9	84	59.0	0	0	---	0.00	30.081 
01:45	63.7	63.7	63.7	84	58.8	0	0	---	0.00	30.082 
01:50	63.4	63.4	63.4	85	58.8	0	0	---	0.00	30.082 
01:55	63.2	63.2	63.2	86	58.9	0	0	---	0.00	30.082 
02:00	63.2	63.2	63.2	86	58.9	0	0	---	0.00	30.084 
02:05	63.2	63.2	63.2	86	58.9	0	0	---	0.00	30.084 
02:10	63.1	63.1	63.1	86	58.8	0	0	---	0.00	30.084 
02:15	63.1	63.1	63.1	86	58.8	0	0	---	0.00	30.082 
02:20	63.1	63.1	63.1	86	58.8	0	0	---	0.00	30.082 
02:25	63.2	63.2	63.2	86	58.9	0	0	---	0.00	30.082 
02:30	63.2	63.2	63.2	86	58.9	0	0	---	0.00	30.077 
02:35	63.2	63.2	63.2	86	58.9	0	0	---	0.00	30.077 
02:40	63.4	63.4	63.4	86	59.1	0	1	90	0.00	30.077 
02:45	63.4	63.4	63.4	86	59.1	0	1	90	0.00	30.071 
02:50	63.4	63.4	63.4	85	58.8	0	0	---	0.00	30.071 
02:55	63.4	63.4	63.4	85	58.8	0	0	---	0.00	30.071 
03:00	63.4	63.4	63.4	85	58.8	0	0	---	0.00	30.068 
03:05	63.4	63.4	63.4	85	58.8	0	0	---	0.00	30.068 
03:10	63.2	63.2	63.2	85	58.6	0	0	---	0.00	30.068 
03:15	63.2	63.2	63.2	85	58.6	0	0	---	0.00	30.062 
03:20	63.1	63.1	63.1	85	58.5	0	0	---	0.00	30.062 
03:25	63.1	63.1	63.1	86	58.8	0	0	---	0.00	30.062 
03:30	62.9	62.9	62.9	86	58.6	0	0	---	0.00	30.057 
03:35	62.9	62.9	62.9	86	58.6	0	0	---	0.00	30.057 
03:40	62.7	62.7	62.7	86	58.4	0	0	---	0.00	30.057 
03:45	62.7	62.7	62.7	86	58.4	0	0	---	0.00	30.052 
03:50	62.6	62.6	62.6	86	58.3	0	0	---	0.00	30.052 
03:55	62.4	62.4	62.4	86	58.2	0	0	---	0.00	30.052 
04:00	62.3	62.3	62.3	86	58.1	0	0	---	0.00	30.063 
04:05	62.3	62.3	62.3	87	58.4	0	0	---	0.00	30.063 
04:10	62.1	62.1	62.1	87	58.2	0	0	---	0.00	30.063 
04:15	62.1	62.1	62.1	87	58.2	0	0	---	0.00	30.064 
04:20	62.0	62.0	62.0	88	58.4	0	0	---	0.00	30.064 
04:25	62.0	62.0	62.0	88	58.4	0	0	---	0.00	30.064 
04:30	62.0	62.0	62.0	88	58.4	0	0	---	0.00	30.061 
04:35	62.0	62.0	62.0	88	58.4	0	0	---	0.00	30.061 
04:40	62.0	62.0	62.0	88	58.4	0	0	---	0.00	30.061 
04:45	62.0	62.0	62.0	89	58.7	0	0	---	0.00	30.055 
04:50	62.0	62.0	62.0	89	58.7	0	0	---	0.00	30.055 
04:55	62.0	62.0	62.0	89	58.7	0	0	---	0.00	30.055 
05:00	61.8	61.8	61.8	89	58.5	0	0	---	0.00	30.054 
05:05	61.8	61.8	61.8	88	58.2	0	0	---	0.00	30.054 
05:10	61.8	61.8	61.8	88	58.2	0	0	---	0.00	30.054 
05:15	61.8	61.8	61.8	88	58.2	0	0	---	0.00	30.053 
05:20	61.8	61.8	61.8	88	58.2	0	0	---	0.00	30.053 
05:25	61.8	61.8	61.8	88	58.2	0	0	---	0.00	30.053 
05:30	61.8	61.8	61.8	88	58.2	0	0	---	0.00	30.057 
05:35	61.8	61.8	61.8	88	58.2	0	0	---	0.00	30.057 
05:40	61.8	61.8	61.8	88	58.2	0	0	---	0.00	30.057 
05:45	61.8	61.8	61.8	88	58.2	0	1	90	0.00	30.052 
05:50	61.8	61.8	61.8	88	58.2	0	0	---	0.00	30.052 
05:55	61.8	61.8	61.8	88	58.2	0	0	---	0.00	30.052 
06:00	61.8	61.8	61.8	88	58.2	0	0	---	0.00	30.051 
06:05	61.8	61.8	61.8	88	58.2	0	0	---	0.00	30.051 
06:10	61.8	61.8	61.8	88	58.2	0	0	---	0.00	30.051 
06:15	61.8	61.8	61.8	89	58.5	0	0	---	0.00	30.053 
06:20	61.8	61.8	61.8	89	58.5	0	0	---	0.00	30.053 
06:25	61.8	61.8	61.8	89	58.5	0	0	---	0.00	30.053 
06:30	61.8	61.8	61.8	89	58.5	0	0	---	0.00	30.054 
06:35	61.8	61.8	61.8	88	58.2	0	0	---	0.00	30.054 
06:40	62.0	62.0	62.0	89	58.7	0	0	---	0.00	30.054 
06:45	62.0	62.0	62.0	88	58.4	0	0	---	0.00	30.058 
06:50	62.0	62.0	62.0	88	58.4	0	0	---	0.00	30.058 
06:55	62.0	62.0	62.0	88	58.4	0	0	---	0.00	30.058 
07:00	62.0	62.0	62.0	88	58.4	0	0	---	0.00	30.060 
07:05	62.0	62.0	62.0	88	58.4	0	0	---	0.00	30.060 
07:10	62.0	62.0	62.0	88	58.4	0	0	---	0.00	30.060 
07:15	62.1	62.1	62.1	88	58.5	0	0	---	0.00	30.065 
07:20	62.1	62.1	62.1	88	58.5	0	0	---	0.00	30.065 
07:25	62.1	62.1	62.1	88	58.5	0	0	---	0.00	30.065 
07:30	62.3	62.3	62.3	88	58.7	0	0	---	0.00	30.068 
07:35	62.3	62.3	62.3	88	58.7	0	0	---	0.00	30.068 
07:40	62.3	62.3	62.3	88	58.7	0	0	---	0.00	30.068 
07:45	62.4	62.4	62.4	88	58.8	0	0	---	0.00	30.069 
07:50	62.4	62.4	62.4	87	58.5	0	0	---	0.00	30.069 
07:55	62.6	62.6	62.6	87	58.7	0	0	---	0.00	30.069 
08:00	62.6	62.6	62.6	87	58.7	0	0	---	0.00	30.067 
08:05	62.7	62.7	62.7	87	58.8	0	0	---	0.00	30.067 
08:10	62.7	62.7	62.7	87	58.8	0	0	---	0.00	30.067 
08:15	62.9	62.9	62.9	87	59.0	0	0	---	0.00	30.072 
08:20	62.9	62.9	62.9	87	59.0	0	0	---	0.00	30.072 
08:25	63.1	63.1	63.1	87	59.2	0	0	---	0.00	30.072 
08:30	63.1	63.1	63.1	86	58.8	0	0	---	0.00	30.071 
08:35	63.2	63.2	63.2	86	58.9	0	0	---	0.00	30.071 
08:40	63.4	63.4	63.4	86	59.1	0	1	90	0.00	30.071 
08:45	63.5	63.5	63.5	86	59.2	0	0	---	0.00	30.072 
08:50	63.5	63.5	63.5	86	59.2	0	1	90	0.00	30.072 
08:55	63.9	63.9	63.9	86	59.6	0	0	---	0.00	30.072 
09:00	64.0	64.0	64.0	86	59.7	0	1	90	0.00	30.071 
09:05	64.2	64.2	64.2	86	59.9	0	1	90	0.00	30.071 
09:10	64.3	64.3	64.3	85	59.7	0	0	---	0.00	30.071 
09:15	64.5	64.5	64.5	84	59.6	0	1	90	0.00	30.072 
09:20	64.7	64.7	64.7	84	59.7	0	1	90	0.00	30.072 
09:25	64.8	64.8	64.8	84	59.8	0	1	90	0.00	30.072 
09:30	65.0	65.0	65.0	83	59.7	0	1	90	0.00	30.071 
09:35	65.3	65.3	65.3	83	60.0	0	1	90	0.00	30.071 
09:40	65.6	65.6	65.6	83	60.3	0	1	90	0.00	30.071 
09:45	65.8	65.8	65.8	82	60.1	0	1	90	0.00	30.063 
09:50	66.0	66.0	66.0	82	60.3	0	1	90	0.00	30.063 
09:55	66.1	66.1	66.1	83	60.8	0	1	90	0.00	30.063 
10:00	66.6	66.6	66.6	82	60.9	0	1	90	0.00	30.056 
10:05	66.9	66.9	66.9	81	60.9	0	2	90	0.00	30.056 
10:10	67.4	67.4	67.4	81	61.4	0	0	---	0.00	30.056 
10:15	68.1	68.1	68.1	79	61.3	0	1	90	0.00	30.060 
10:20	68.8	68.8	68.8	78	61.7	0	1	90	0.00	30.060 
10:25	69.4	69.4	69.4	78	62.2	0	0	---	0.00	30.060 
10:30	70.3	70.3	70.3	75	62.0	0	1	90	0.00	30.055 
10:35	70.8	70.8	70.8	75	62.5	0	1	90	0.00	30.055 
10:40	71.3	71.3	71.3	74	62.6	0	0	---	0.00	30.055 
10:45	72.1	72.1	72.1	72	62.6	0	1	90	0.00	30.056 
10:50	73.0	73.0	73.0	70	62.6	0	1	90	0.00	30.056 
10:55	74.0	74.0	74.0	69	63.2	0	1	90	0.00	30.056 
11:00	75.1	75.1	76.9	68	63.8	0	1	90	0.00	30.051 
11:05	76.0	76.0	77.9	64	62.9	0	2	90	0.00	30.051 
11:10	76.5	76.5	78.3	65	63.8	0	1	90	0.00	30.051 
11:15	76.7	76.7	78.5	64	63.6	0	1	90	0.00	30.052 
11:20	76.7	76.7	78.5	65	64.0	0	1	90	0.00	30.052 
11:25	76.5	76.5	78.3	64	63.4	0	0	---	0.00	30.052 
11:30	76.7	76.7	78.5	63	63.1	0	1	90	0.00	30.055 
11:35	76.8	76.8	78.6	63	63.2	0	1	90	0.00	30.055 
11:40	77.0	77.0	78.8	63	63.4	0	1	90	0.00	30.055 
11:45	77.0	77.0	78.8	64	63.9	0	1	90	0.00	30.058 
11:50	77.6	77.6	79.4	62	63.5	0	1	90	0.00	30.058 
11:55	77.7	77.7	79.4	59	62.2	0	1	90	0.00	30.058 
12:00	77.9	77.9	79.6	61	63.3	0	1	90	0.00	30.054 
12:05	77.9	77.9	79.6	62	63.8	0	1	90	0.00	30.054 
12:10	77.9	77.9	79.6	60	62.9	0	1	90	0.00	30.054 
12:15	77.9	77.9	79.6	61	63.3	0	0	---	0.00	30.050 
12:20	77.9	77.9	79.6	61	63.3	0	0	---	0.00	30.050 
12:25	77.7	77.7	79.4	62	63.6	0	1	90	0.00	30.050 
12:30	77.6	77.6	79.4	62	63.5	0	1	90	0.00	30.048 
12:35	77.4	77.4	79.2	63	63.8	0	1	90	0.00	30.048 
12:40	77.4	77.4	79.2	64	64.2	0	0	---	0.00	30.048 
12:45	77.4	77.4	79.2	63	63.8	0	0	---	0.00	30.047 
12:50	77.4	77.4	79.2	63	63.8	0	0	---	0.00	30.047 
12:55	77.6	77.6	79.4	63	64.0	0	0	---	0.00	30.047 
13:00	77.7	77.7	79.4	62	63.6	0	0	---	0.00	30.042 
13:05	78.1	78.1	79.9	63	64.5	0	1	90	0.00	30.042 
13:10	78.3	78.3	80.1	63	64.6	0	1	90	0.00	30.042 
13:15	78.5	78.5	80.2	61	63.9	0	1	90	0.00	30.035 
13:20	78.6	78.6	80.4	62	64.5	0	1	90	0.00	30.035 
13:25	78.6	78.6	80.4	62	64.5	0	1	90	0.00	30.035 
13:30	78.6	78.6	80.4	63	64.9	0	1	90	0.00	30.032 
13:35	78.6	78.6	80.4	63	64.9	0	1	90	0.00	30.032 
13:40	78.6	78.6	80.4	63	64.9	0	1	90	0.00	30.032 
13:45	78.6	78.6	80.4	63	64.9	0	1	90	0.00	30.030 
13:50	78.5	78.5	80.3	63	64.8	0	2	90	0.00	30.030 
13:55	78.3	78.3	80.2	64	65.1	0	0	---	0.00	30.030 
14:00	78.3	78.3	80.2	64	65.1	0	0	---	0.00	30.030 
14:05	78.3	78.3	80.2	65	65.5	0	1	90	0.00	30.030 
14:10	78.1	78.1	79.9	64	64.9	0	1	90	0.00	30.030 
14:15	78.1	78.1	79.9	64	64.9	0	0	---	0.00	30.029 
14:20	78.1	78.1	79.9	64	64.9	0	0	---	0.00	30.029 
14:25	78.1	78.1	79.9	64	64.9	0	0	---	0.00	30.029 
14:30	78.1	78.1	80.0	65	65.4	0	0	---	0.00	30.030 
14:35	78.3	78.3	80.2	65	65.5	0	1	90	0.00	30.030 
14:40	78.3	78.3	80.2	65	65.5	0	0	---	0.00	30.030 
14:45	78.3	78.3	80.2	65	65.5	0	1	90	0.00	30.028 
14:50	78.3	78.3	80.2	65	65.5	0	0	---	0.00	30.028 
14:55	78.5	78.5	80.4	65	65.7	0	1	90	0.00	30.028 
15:00	78.5	78.5	80.4	65	65.7	0	1	90	0.00	30.018 
15:05	78.3	78.3	80.2	66	66.0	0	1	90	0.00	30.018 
15:10	78.1	78.1	80.0	66	65.8	0	1	90	0.00	30.018 
15:15	77.9	77.9	79.8	67	66.0	0	0	---	0.00	30.020 
15:20	77.7	77.7	79.6	70	67.1	0	0	---	0.00	30.020 
15:25	77.6	77.6	79.5	71	67.4	0	0	---	0.00	30.020 
15:30	77.4	77.4	79.3	72	67.6	0	0	---	0.00	30.017 
15:35	77.2	77.2	79.0	74	68.3	0	0	---	0.00	30.017 
15:40	76.5	76.5	77.9	77	68.7	0	0	---	0.01	30.017 
15:45	76.0	76.0	77.0	80	69.4	0	0	---	0.02	30.024 
15:50	75.3	75.3	75.8	82	69.4	0	0	---	0.01	30.024 
15:55	74.4	74.4	74.4	83	68.9	0	1	90	0.01	30.024 
16:00	74.0	74.0	74.0	84	68.8	0	0	---	0.00	30.018 
16:05	73.7	73.7	73.7	86	69.2	0	0	---	0.00	30.018 
16:10	73.5	73.5	73.5	87	69.4	0	0	---	0.00	30.018 
16:15	73.3	73.3	73.3	87	69.2	0	0	---	0.00	30.019 
16:20	73.3	73.3	73.3	88	69.5	0	0	---	0.00	30.019 
16:25	73.3	73.3	73.3	88	69.5	0	0	---	0.00	30.019 
16:30	73.3	73.3	73.3	88	69.5	0	0	---	0.00	30.015 
16:35	73.3	73.3	73.3	89	69.9	0	0	---	0.00	30.015 
16:40	73.3	73.3	73.3	89	69.9	0	0	---	0.00	30.015 
16:45	73.3	73.3	73.3	90	70.2	0	0	---	0.00	30.006 
16:50	73.3	73.3	73.3	90	70.2	0	0	---	0.00	30.006 
16:55	73.3	73.3	73.3	90	70.2	0	0	---	0.00	30.006 
17:00	73.3	73.3	73.3	90	70.2	0	0	---	0.00	30.003 
17:05	73.5	73.5	73.5	90	70.4	0	0	---	0.00	30.003 
17:10	73.5	73.5	73.5	90	70.4	0	0	---	0.00	30.003 
17:15	73.5	73.5	73.5	89	70.0	0	1	90	0.00	29.993 
17:20	73.5	73.5	73.5	89	70.0	0	1	90	0.00	29.993 
17:25	73.7	73.7	73.7	89	70.2	0	1	90	0.00	29.993 
17:30	73.7	73.7	73.7	89	70.2	0	0	---	0.00	29.995 
17:35	73.7	73.7	73.7	89	70.2	0	0	---	0.00	29.995 
17:40	73.7	73.7	73.7	89	70.2	0	0	---	0.01	29.995 
17:45	73.9	73.9	73.9	89	70.4	0	0	---	0.00	29.991 
17:50	73.9	73.9	73.9	90	70.8	0	0	---	0.00	29.991 
17:55	73.9	73.9	73.9	90	70.8	0	0	---	0.00	29.991 
18:00	74.0	74.0	74.0	90	70.9	0	0	---	0.00	29.989 
18:05	74.0	74.0	74.0	90	70.9	0	0	---	0.00	29.989 
18:10	74.2	74.2	74.2	90	71.1	0	0	---	0.00	29.989 
18:15	74.2	74.2	74.2	90	71.1	0	0	---	0.00	29.989 
18:20	74.4	74.4	74.4	90	71.3	0	0	---	0.00	29.989 
18:25	74.4	74.4	74.4	90	71.3	0	0	---	0.00	29.989 
18:30	74.4	74.4	74.4	89	70.9	0	0	---	0.00	29.988 
18:35	74.4	74.4	74.4	89	70.9	0	0	---	0.00	29.988 
18:40	74.6	74.6	74.6	89	71.1	0	0	---	0.00	29.988 
18:45	74.6	74.6	74.6	88	70.8	0	0	---	0.00	29.982 
18:50	74.6	74.6	74.6	88	70.8	0	0	---	0.00	29.982 
18:55	74.4	74.4	74.4	88	70.6	0	0	---	0.00	29.982 
19:00	74.4	74.4	74.4	88	70.6	0	0	---	0.00	29.982 
19:05	74.2	74.2	74.2	88	70.4	0	0	---	0.00	29.982 
19:10	74.2	74.2	74.2	88	70.4	0	0	---	0.00	29.982 
19:15	74.0	74.0	74.0	89	70.5	0	0	---	0.00	29.987 
19:20	73.9	73.9	73.9	89	70.4	0	0	---	0.00	29.987 
19:25	73.9	73.9	73.9	89	70.4	0	0	---	0.01	29.987 
19:30	73.7	73.7	73.7	90	70.6	0	0	---	0.00	29.986 
19:35	73.5	73.5	73.5	90	70.4	0	0	---	0.01	29.986 
19:40	73.3	73.3	73.3	90	70.2	0	0	---	0.00	29.986 
19:45	73.2	73.2	73.2	91	70.4	0	0	---	0.00	29.987 
19:50	73.0	73.0	73.0	91	70.2	0	0	---	0.00	29.987 
19:55	72.8	72.8	72.8	91	70.0	0	0	---	0.00	29.987 
20:00	72.7	72.7	72.7	91	69.9	0	0	---	0.00	29.989 
20:05	72.5	72.5	72.5	91	69.7	0	0	---	0.00	29.989 
20:10	72.5	72.5	72.5	92	70.0	0	0	---	0.00	29.989 
20:15	72.3	72.3	72.3	92	69.8	0	0	---	0.00	29.991 
20:20	72.3	72.3	72.3	92	69.8	0	0	---	0.00	29.991 
20:25	72.3	72.3	72.3	92	69.8	0	0	---	0.00	29.991 
20:30	72.3	72.3	72.3	92	69.8	0	0	---	0.00	29.997 
20:35	72.3	72.3	72.3	92	69.8	0	0	---	0.00	29.997 
20:40	72.1	72.1	72.1	92	69.6	0	0	---	0.00	29.997 
20:45	72.1	72.1	72.1	92	69.6	0	0	---	0.00	30.002 
20:50	72.1	72.1	72.1	93	70.0	0	0	---	0.00	30.002 
20:55	72.1	72.1	72.1	93	70.0	0	0	---	0.01	30.002 
21:00	72.1	72.1	72.1	93	70.0	0	0	---	0.00	30.014 
21:05	72.0	72.0	72.0	93	69.9	0	0	---	0.00	30.014 
21:10	71.8	71.8	71.8	93	69.7	0	1	90	0.04	30.014 
21:15	71.6	71.6	71.6	93	69.5	0	0	---	0.00	30.008 
21:20	71.5	71.5	71.5	93	69.4	0	0	---	0.00	30.008 
21:25	71.5	71.5	71.5	93	69.4	0	1	90	0.00	30.008 
21:30	71.3	71.3	71.3	93	69.2	0	1	90	0.00	30.008 
21:35	71.1	71.1	71.1	93	69.0	0	0	---	0.00	30.008 
21:40	70.9	70.9	70.9	93	68.8	0	0	---	0.00	30.008 
21:45	70.8	70.8	70.8	93	68.7	0	0	---	0.00	30.013 
21:50	70.6	70.6	70.6	94	68.8	0	0	---	0.00	30.013 
21:55	70.6	70.6	70.6	94	68.8	0	0	---	0.00	30.013 
22:00	70.4	70.4	70.4	94	68.6	0	0	---	0.01	30.020 
22:05	70.4	70.4	70.4	94	68.6	0	0	---	0.01	30.020 
22:10	70.4	70.4	70.4	94	68.6	0	0	---	0.00	30.020 
22:15	70.3	70.3	70.3	94	68.5	0	0	---	0.01	30.014 
22:20	70.3	70.3	70.3	94	68.5	0	1	90	0.02	30.014 
22:25	70.3	70.3	70.3	94	68.5	0	2	90	0.13	30.014 
22:30	70.3	70.3	70.3	94	68.5	1	2	90	0.09	30.018 
22:35	70.1	70.1	70.1	94	68.3	0	2	90	0.04	30.018 
22:40	69.6	69.6	69.6	94	67.8	0	1	90	0.05	30.018 
22:45	69.3	69.3	69.3	94	67.5	0	1	90	0.01	30.010 
22:50	69.1	69.1	69.1	94	67.3	0	1	90	0.00	30.010 
22:55	69.1	69.1	69.1	94	67.3	0	2	90	0.01	30.010 
23:00	68.9	68.9	68.9	94	67.1	0	1	90	0.00	30.009 
23:05	68.8	68.8	68.8	94	67.0	0	0	---	0.00	30.009 
23:10	68.8	68.8	68.8	95	67.3	1	3	0	0.00	30.009 
23:15	68.4	68.4	68.4	94	66.6	1	5	270	0.01	30.012 
23:20	68.3	68.3	68.3	95	66.8	0	1	270	0.00	30.012 
23:25	68.3	68.3	68.3	94	66.5	0	0	---	0.00	30.012 
23:30	68.3	68.3	68.3	95	66.8	0	0	---	0.00	30.010 
23:35	68.3	68.3	68.3	95	66.8	0	0	---	0.00	30.010 
23:40	68.3	68.3	68.3	95	66.8	0	0	---	0.00	30.010 
23:45	68.3	68.3	68.3	95	66.8	0	0	---	0.00	30.009 
23:50	68.3	68.3	68.3	95	66.8	0	0	---	0.00	30.009 
23:55	68.3	68.3	68.3	95	66.8	0	0	---	0.00	30.009 

CoCoRaHS
IN-AL-39
A2 Web Hosting
Creative Commons License
GoDaddy
search engine by freefind advanced

loaded 2018-11-17 12:37:20 • last modified 2010-11-18 10:43:29
Privacy PolicyDisclaimer
• wx.awcolley.com is powered by PmWiki v.2002016 •
• all content (unless otherwise noted) © 2018 A W Colley